Time;durP1;ratioP1;P1;durP2;ratioP2;P2;SDS_P1;SDS_P2;PMS_P1;PMS_P2;Temp;Humidity;BMP_temperature;BMP_pressure;BME280_temperature;BME280_humidity;BME280_pressure;Samples;Min_cycle;Max_cycle;Signal;HPM_P1;HPM_P2
2023/06/25 00:01:48;;;;;;;13.05;11.23;;;;;;;;;;4993934;28;20125;-67
2023/06/25 00:04:14;;;;;;;20.67;11.68;;;;;;;;;;4992504;28;20106;-68
2023/06/25 00:06:40;;;;;;;13.80;10.82;;;;;;;;;;4977718;28;20045;-68
2023/06/25 00:09:06;;;;;;;17.85;11.55;;;;;;;;;;4973912;28;20039;-68
2023/06/25 00:11:32;;;;;;;16.35;12.02;;;;;;;;;;4979629;28;20515;-69
2023/06/25 00:13:58;;;;;;;13.55;11.10;;;;;;;;;;4994065;28;20154;-69
2023/06/25 00:16:25;;;;;;;17.23;11.68;;;;;;;;;;4993987;28;20443;-68
2023/06/25 00:18:51;;;;;;;14.77;11.05;;;;;;;;;;4993868;28;20122;-68
2023/06/25 00:21:17;;;;;;;16.17;11.45;;;;;;;;;;4992362;28;20031;-69
2023/06/25 00:23:43;;;;;;;15.57;11.35;;;;;;;;;;4994334;28;20022;-69
2023/06/25 00:26:09;;;;;;;13.43;10.82;;;;;;;;;;4994006;28;20026;-68
2023/06/25 00:28:37;;;;;;;14.43;11.15;;;;;;;;;;4993807;28;20026;-68
2023/06/25 00:31:04;;;;;;;11.80;10.43;;;;;;;;;;4993998;28;20030;-68
2023/06/25 00:33:32;;;;;;;14.55;11.13;;;;;;;;;;4993935;28;20062;-68
2023/06/25 00:35:58;;;;;;;16.70;12.65;;;;;;;;;;4993696;28;20477;-70
2023/06/25 00:38:25;;;;;;;16.75;12.63;;;;;;;;;;4993530;28;20057;-68
2023/06/25 00:40:51;;;;;;;14.07;11.23;;;;;;;;;;4993492;28;20022;-69
2023/06/25 00:43:20;;;;;;;13.98;12.00;;;;;;;;;;4993684;28;20030;-68
2023/06/25 00:45:46;;;;;;;12.20;9.80;;;;;;;;;;4993768;28;20386;-68
2023/06/25 00:48:13;;;;;;;13.48;10.82;;;;;;;;;;4993142;28;20072;-68
2023/06/25 00:50:39;;;;;;;13.98;10.80;;;;;;;;;;4992869;28;20069;-67
2023/06/25 00:53:08;;;;;;;17.13;11.27;;;;;;;;;;4993304;28;20030;-68
2023/06/25 00:55:34;;;;;;;13.57;10.57;;;;;;;;;;4993254;28;20392;-68
2023/06/25 00:58:00;;;;;;;14.02;10.45;;;;;;;;;;4991497;28;20026;-69
2023/06/25 01:00:27;;;;;;;13.85;10.68;;;;;;;;;;4993182;28;20476;-68
2023/06/25 01:03:04;;;;;;;11.85;10.00;;;;;;;;;;4993318;28;20045;-69
2023/06/25 01:05:48;;;;;;;12.43;9.77;;;;;;;;;;4993317;28;20029;-70
2023/06/25 01:08:15;;;;;;;14.27;9.40;;;;;;;;;;4992971;28;20034;-69
2023/06/25 01:10:41;;;;;;;11.57;9.95;;;;;;;;;;4993457;28;20052;-70
2023/06/25 01:13:07;;;;;;;13.18;10.15;;;;;;;;;;4991960;28;20161;-69
2023/06/25 01:15:33;;;;;;;13.82;10.88;;;;;;;;;;4993205;28;20065;-69
2023/06/25 01:17:59;;;;;;;13.05;9.98;;;;;;;;;;4992605;28;20429;-69
2023/06/25 01:20:29;;;;;;;13.90;10.82;;;;;;;;;;4992919;28;20033;-70
2023/06/25 01:22:55;;;;;;;13.40;10.57;;;;;;;;;;4992681;28;20068;-69
2023/06/25 01:25:21;;;;;;;13.57;10.68;;;;;;;;;;4992807;28;20023;-69
2023/06/25 01:27:50;;;;;;;15.35;10.35;;;;;;;;;;4992501;28;20022;-69
2023/06/25 01:30:17;;;;;;;13.77;9.82;;;;;;;;;;4992602;28;20026;-69
2023/06/25 01:32:44;;;;;;;16.65;10.20;;;;;;;;;;4992467;28;20105;-68
2023/06/25 01:35:11;;;;;;;12.85;9.25;;;;;;;;;;4992598;28;20035;-69
2023/06/25 01:37:36;;;;;;;11.38;8.57;;;;;;;;;;4992039;28;20058;-68
2023/06/25 01:40:03;;;;;;;12.52;10.32;;;;;;;;;;4992464;28;20061;-68
2023/06/25 01:42:29;;;;;;;12.82;9.63;;;;;;;;;;4992333;28;20026;-68
2023/06/25 01:44:55;;;;;;;9.93;8.77;;;;;;;;;;4992447;28;20029;-68
2023/06/25 01:47:21;;;;;;;10.93;9.57;;;;;;;;;;4992129;28;20027;-68
2023/06/25 01:49:47;;;;;;;11.65;10.18;;;;;;;;;;4990942;28;20044;-68
2023/06/25 01:52:13;;;;;;;10.82;9.50;;;;;;;;;;4992349;28;20109;-68
2023/06/25 01:54:39;;;;;;;12.23;9.05;;;;;;;;;;4992367;28;20046;-68
2023/06/25 01:57:05;;;;;;;13.32;9.25;;;;;;;;;;4990809;28;20030;-68
2023/06/25 01:59:34;;;;;;;13.20;9.05;;;;;;;;;;4991956;28;20033;-68
2023/06/25 02:02:00;;;;;;;12.07;8.98;;;;;;;;;;4991684;28;20019;-68
2023/06/25 02:04:26;;;;;;;14.70;9.15;;;;;;;;;;4992088;28;20038;-68
2023/06/25 02:06:52;;;;;;;12.88;9.35;;;;;;;;;;4992352;28;20038;-68
2023/06/25 02:09:18;;;;;;;11.13;9.57;;;;;;;;;;5040573;22;20111;-72
2023/06/25 02:11:45;;;;;;;12.13;9.52;;;;;;;;;;5011396;28;20037;-69
2023/06/25 02:14:11;;;;;;;13.57;10.45;;;;;;;;;;5011416;28;20068;-70
2023/06/25 02:16:38;;;;;;;28.77;24.58;;;;;;;;;;4993879;28;20405;-69
2023/06/25 02:19:04;;;;;;;38.05;30.80;;;;;;;;;;4993611;28;20415;-70
2023/06/25 02:21:30;;;;;;;16.63;13.13;;;;;;;;;;5011701;28;20523;-70
2023/06/25 02:23:56;;;;;;;18.23;12.75;;;;;;;;;;5011508;28;20073;-71
2023/06/25 02:26:22;;;;;;;15.13;12.82;;;;;;;;;;5011724;28;20060;-69
2023/06/25 02:28:48;;;;;;;13.25;11.27;;;;;;;;;;5011080;28;20431;-71
2023/06/25 02:31:14;;;;;;;13.45;11.10;;;;;;;;;;5011403;28;20052;-71
2023/06/25 02:33:40;;;;;;;15.57;12.52;;;;;;;;;;5011343;28;20041;-70
2023/06/25 02:36:07;;;;;;;17.67;12.63;;;;;;;;;;5011476;28;20381;-70
2023/06/25 02:38:33;;;;;;;17.17;13.70;;;;;;;;;;5011140;28;20022;-70
2023/06/25 02:40:59;;;;;;;11.90;10.57;;;;;;;;;;5011353;28;20052;-71
2023/06/25 02:43:25;;;;;;;13.98;11.27;;;;;;;;;;4993781;28;20077;-71
2023/06/25 02:45:51;;;;;;;13.48;10.65;;;;;;;;;;5011099;28;20496;-71
2023/06/25 02:48:17;;;;;;;15.95;11.60;;;;;;;;;;5010952;28;20054;-71
2023/06/25 02:50:43;;;;;;;18.08;13.20;;;;;;;;;;5011387;28;20061;-72
2023/06/25 02:53:09;;;;;;;15.93;11.27;;;;;;;;;;5011406;28;20057;-71
2023/06/25 02:55:35;;;;;;;15.98;12.05;;;;;;;;;;5011394;28;20058;-70
2023/06/25 02:58:01;;;;;;;17.60;11.80;;;;;;;;;;5012350;28;20080;-70
2023/06/25 03:00:27;;;;;;;14.70;12.57;;;;;;;;;;5012447;28;20026;-70
2023/06/25 03:02:53;;;;;;;14.32;12.20;;;;;;;;;;5013050;28;20073;-70
2023/06/25 03:05:19;;;;;;;16.67;12.02;;;;;;;;;;5012530;28;20495;-69
2023/06/25 03:07:55;;;;;;;13.88;12.43;;;;;;;;;;5011835;28;20041;-70
2023/06/25 03:10:24;;;;;;;52.35;39.60;;;;;;;;;;5011701;28;20030;-71
2023/06/25 03:12:50;;;;;;;24.38;18.98;;;;;;;;;;4994054;28;20084;-70
2023/06/25 03:15:17;;;;;;;17.33;13.30;;;;;;;;;;5014906;28;20029;-69
2023/06/25 03:17:43;;;;;;;14.32;12.23;;;;;;;;;;5014660;28;20120;-70
2023/06/25 03:20:10;;;;;;;19.52;13.95;;;;;;;;;;5015039;28;20026;-70
2023/06/25 03:22:36;;;;;;;16.27;13.25;;;;;;;;;;5014833;28;20034;-71
2023/06/25 03:25:03;;;;;;;15.02;11.77;;;;;;;;;;5014510;28;20021;-71
2023/06/25 03:27:29;;;;;;;14.05;11.55;;;;;;;;;;5014314;28;20112;-70
2023/06/25 03:29:55;;;;;;;20.63;10.35;;;;;;;;;;5014382;28;20080;-70
2023/06/25 03:32:21;;;;;;;13.15;10.07;;;;;;;;;;5014548;28;20377;-68
2023/06/25 03:34:47;;;;;;;12.45;8.75;;;;;;;;;;5014426;28;20077;-70
2023/06/25 03:37:13;;;;;;;14.23;10.48;;;;;;;;;;5014075;28;20400;-70
2023/06/25 03:39:39;;;;;;;10.60;9.18;;;;;;;;;;5014222;28;20113;-70
2023/06/25 03:42:05;;;;;;;9.73;7.82;;;;;;;;;;5014078;28;20028;-70
2023/06/25 03:44:31;;;;;;;9.23;7.32;;;;;;;;;;4996646;28;20030;-70
2023/06/25 03:46:57;;;;;;;9.35;7.63;;;;;;;;;;5014017;28;20077;-70
2023/06/25 03:49:23;;;;;;;10.82;7.93;;;;;;;;;;5014032;28;20085;-70
2023/06/25 03:51:49;;;;;;;11.77;7.30;;;;;;;;;;5013908;28;20037;-70
2023/06/25 03:54:15;;;;;;;19.58;17.00;;;;;;;;;;5014131;28;20037;-71
2023/06/25 03:56:41;;;;;;;37.67;30.83;;;;;;;;;;5013649;28;20029;-71
2023/06/25 03:59:07;;;;;;;14.60;9.95;;;;;;;;;;5013750;28;20420;-71
2023/06/25 04:01:33;;;;;;;10.50;7.68;;;;;;;;;;5013759;28;20026;-70
2023/06/25 04:03:59;;;;;;;8.50;7.55;;;;;;;;;;5013859;28;20500;-71
2023/06/25 04:06:25;;;;;;;11.00;7.75;;;;;;;;;;5013803;28;20109;-70
2023/06/25 04:08:53;;;;;;;8.95;6.07;;;;;;;;;;5013392;28;20065;-70
2023/06/25 04:11:19;;;;;;;9.63;6.97;;;;;;;;;;5013476;28;20034;-71
2023/06/25 04:13:45;;;;;;;8.57;6.28;;;;;;;;;;5013739;28;20025;-70
2023/06/25 04:16:11;;;;;;;8.02;6.78;;;;;;;;;;5013542;28;20025;-71
2023/06/25 04:18:41;;;;;;;9.65;6.80;;;;;;;;;;5013354;28;20030;-71
2023/06/25 04:21:07;;;;;;;9.77;7.22;;;;;;;;;;5013496;28;20014;-70
2023/06/25 04:23:34;;;;;;;8.07;6.38;;;;;;;;;;5013555;28;20404;-70
2023/06/25 04:26:00;;;;;;;9.02;6.50;;;;;;;;;;5012398;28;20049;-71
2023/06/25 04:28:26;;;;;;;9.45;6.03;;;;;;;;;;5013120;28;20121;-71
2023/06/25 04:30:51;;;;;;;7.10;6.38;;;25.20;51.90;;;;;;4995687;28;20034;-71
2023/06/25 04:33:19;;;;;;;9.98;6.43;;;24.90;51.80;;;;;;5013252;28;20034;-70
2023/06/25 04:35:46;;;;;;;10.20;6.53;;;25.30;52.10;;;;;;5013283;28;20054;-70
2023/06/25 04:38:12;;;;;;;8.50;6.30;;;25.40;50.60;;;;;;5012750;28;20072;-71
2023/06/25 04:40:37;;;;;;;7.15;6.45;;;24.50;52.60;;;;;;5013197;28;20057;-69
2023/06/25 04:43:03;;;;;;;9.25;6.78;;;;;;;;;;5013089;28;20026;-70
2023/06/25 04:45:29;;;;;;;10.75;7.00;;;;;;;;;;5013119;28;20026;-70
2023/06/25 04:47:55;;;;;;;10.80;6.63;;;;;;;;;;5012721;28;20041;-70
2023/06/25 04:50:21;;;;;;;6.93;6.28;;;;;;;;;;5012968;28;20084;-70
2023/06/25 04:52:47;;;;;;;7.85;6.20;;;;;;;;;;5013155;28;20488;-70
2023/06/25 04:55:13;;;;;;;12.48;6.30;;;;;;;;;;4995590;28;20034;-70
2023/06/25 04:57:39;;;;;;;7.88;6.05;;;;;;;;;;4993259;28;20045;-70
2023/06/25 05:00:06;;;;;;;12.13;6.45;;;;;;;;;;4993257;28;20050;-70
2023/06/25 05:02:31;;;;;;;8.35;5.40;;;25.00;52.20;;;;;;4975608;28;20030;-71
2023/06/25 05:04:57;;;;;;;6.75;5.80;;;25.90;49.90;;;;;;4993204;28;20029;-71
2023/06/25 05:07:22;;;;;;;7.20;6.05;;;26.00;48.60;;;;;;4992613;28;20030;-71
2023/06/25 05:09:48;;;;;;;6.85;5.68;;;25.50;50.20;;;;;;4992883;28;20038;-71
2023/06/25 05:12:13;;;;;;;9.30;5.88;;;25.60;49.90;;;;;;5003707;28;20431;-72
2023/06/25 05:14:39;;;;;;;9.60;6.40;;;27.30;46.20;;;;;;5012832;28;20088;-70
2023/06/25 05:17:05;;;;;;;7.07;5.57;;;28.30;43.90;;;;;;5012400;28;20408;-72
2023/06/25 05:19:31;;;;;;;7.13;5.75;;;29.20;42.20;;;;;;5012632;28;20538;-71
2023/06/25 05:21:56;;;;;;;8.68;6.00;;;29.60;41.20;;;;;;5012544;28;20026;-71
2023/06/25 05:24:22;;;;;;;7.95;5.90;;;28.00;44.10;;;;;;5012581;28;20539;-71
2023/06/25 05:26:47;;;;;;;10.18;5.80;;;28.40;43.00;;;;;;5012455;28;20101;-71
2023/06/25 05:29:13;;;;;;;9.65;6.10;;;28.90;42.40;;;;;;5011980;28;20510;-72
2023/06/25 05:31:39;;;;;;;8.50;6.05;;;29.40;41.50;;;;;;5012288;28;20488;-71
2023/06/25 05:34:04;;;;;;;8.75;6.00;;;30.70;40.10;;;;;;5012342;28;20030;-71
2023/06/25 05:36:30;;;;;;;6.03;5.22;;;31.70;37.30;;;;;;4994395;28;20033;-71
2023/06/25 05:38:56;;;;;;;7.88;5.10;;;31.90;38.10;;;;;;5011742;28;20013;-71
2023/06/25 05:41:21;;;;;;;6.28;5.25;;;32.20;37.50;;;;;;5011994;28;20026;-71
2023/06/25 05:43:47;;;;;;;6.32;5.38;;;33.30;35.20;;;;;;5012009;28;20022;-72
2023/06/25 05:46:13;;;;;;;8.05;4.85;;;33.40;35.70;;;;;;5012063;28;20029;-71
2023/06/25 05:48:39;;;;;;;5.72;5.00;;;33.90;34.30;;;;;;5011387;28;20053;-71
2023/06/25 05:51:06;;;;;;;6.35;4.82;;;34.90;32.90;;;;;;5011689;28;20052;-71
2023/06/25 05:53:42;;;;;;;7.57;5.53;;;;;;;;;;5011923;28;20038;-71
2023/06/25 05:56:08;;;;;;;6.70;5.25;;;;;;;;;;5014694;28;20064;-71
2023/06/25 05:58:37;;;;;;;7.07;4.97;;;;;;;;;;5031155;28;20061;-71
2023/06/25 06:01:03;;;;;;;6.50;4.43;;;32.90;36.00;;;;;;5012577;28;20026;-71
2023/06/25 06:03:29;;;;;;;8.27;5.05;;;33.60;34.50;;;;;;5011635;28;20033;-71
2023/06/25 06:05:57;;;;;;;7.13;5.50;;;34.90;32.30;;;;;;5011497;28;20393;-71
2023/06/25 06:08:23;;;;;;;4.75;4.32;;;32.50;34.80;;;;;;5011219;28;20026;-72
2023/06/25 06:10:49;;;;;;;5.07;4.50;;;31.60;37.30;;;;;;5011758;28;20026;-70
2023/06/25 06:13:15;;;;;;;7.38;5.13;;;33.00;35.20;;;;;;5011624;28;20076;-71
2023/06/25 06:15:41;;;;;;;6.50;5.38;;;;;;;;;;5010049;28;20014;-71
2023/06/25 06:18:06;;;;;;;5.97;5.15;;;29.70;40.70;;;;;;5010889;28;20109;-71
2023/06/25 06:20:32;;;;;;;7.72;4.95;;;29.60;40.70;;;;;;5011183;28;20032;-71
2023/06/25 06:22:58;;;;;;;7.68;5.30;;;29.20;41.80;;;;;;5011468;28;20029;-71
2023/06/25 06:25:24;;;;;;;6.32;5.60;;;28.80;43.00;;;;;;5011106;28;20021;-70
2023/06/25 06:27:50;;;;;;;8.30;5.28;;;28.20;43.80;;;;;;5011072;28;20404;-71
2023/06/25 06:30:15;;;;;;;6.63;5.43;;;27.70;45.10;;;;;;5011440;28;20080;-70
2023/06/25 06:32:41;;;;;;;9.02;5.43;;;28.30;44.90;;;;;;5011249;28;20101;-72
2023/06/25 06:35:07;;;;;;;9.52;5.47;;;28.00;44.50;;;;;;5011549;28;20033;-70
2023/06/25 06:37:33;;;;;;;7.03;5.88;;;27.50;45.60;;;;;;5006190;28;20541;-71
2023/06/25 06:39:59;;;;;;;6.60;4.88;;;;;;;;;;4993228;28;20330;-69
2023/06/25 06:42:24;;;;;;;6.40;5.25;;;29.00;42.30;;;;;;4989001;28;20042;-71
2023/06/25 06:44:50;;;;;;;9.52;5.78;;;28.60;43.20;;;;;;4990976;28;20433;-68
2023/06/25 06:47:15;;;;;;;13.68;6.32;;;28.50;43.70;;;;;;4990300;28;20045;-71
2023/06/25 06:49:41;;;;;;;7.28;5.43;;;28.50;43.50;;;;;;4993603;28;20030;-70
2023/06/25 06:52:07;;;;;;;5.68;5.05;;;28.60;43.90;;;;;;4994839;28;20022;-71
2023/06/25 06:54:32;;;;;;;7.78;5.43;;;29.90;40.70;;;;;;4995052;28;20385;-70
2023/06/25 06:56:58;;;;;;;6.63;5.43;;;31.50;38.00;;;;;;5002939;28;20555;-68
2023/06/25 06:59:24;;;;;;;7.18;4.93;;;32.10;36.60;;;;;;5011197;28;20026;-68
2023/06/25 07:01:49;;;;;;;5.47;4.90;;;31.30;38.40;;;;;;4996832;28;20026;-70
2023/06/25 07:04:15;;;;;;;5.60;4.43;;;32.00;36.70;;;;;;5014533;28;20101;-71
2023/06/25 07:06:41;;;;;;;6.50;4.53;;;33.30;34.80;;;;;;5013522;28;20037;-71
2023/06/25 07:09:06;;;;;;;5.90;4.15;;;35.20;32.60;;;;;;5012500;28;20077;-71
2023/06/25 07:11:32;;;;;;;5.75;5.03;;;36.90;29.40;;;;;;5013462;28;20105;-71
2023/06/25 07:13:57;;;;;;;8.50;4.85;;;36.10;30.10;;;;;;5012973;28;20056;-70
2023/06/25 07:16:23;;;;;;;6.15;4.82;;;35.60;31.10;;;;;;5013136;28;20518;-71
2023/06/25 07:18:49;;;;;;;7.95;4.70;;;33.90;33.30;;;;;;5009886;28;20088;-70
2023/06/25 07:21:14;;;;;;;5.70;4.95;;;34.50;32.70;;;;;;5012953;28;20101;-70
2023/06/25 07:23:40;;;;;;;9.10;4.38;;;34.80;31.60;;;;;;5013028;28;20097;-71
2023/06/25 07:26:05;;;;;;;7.85;4.28;;;35.40;31.20;;;;;;5022498;28;20030;-70
2023/06/25 07:28:31;;;;;;;6.00;4.50;;;36.40;30.20;;;;;;5032960;28;20418;-71
2023/06/25 07:30:57;;;;;;;4.85;4.45;;;37.70;28.80;;;;;;5034329;28;20076;-72
2023/06/25 07:33:22;;;;;;;5.13;4.55;;;36.20;29.60;;;;;;5033549;28;20117;-71
2023/06/25 07:35:48;;;;;;;5.50;4.03;;;36.40;29.90;;;;;;5034342;28;20065;-71
2023/06/25 07:38:14;;;;;;;7.07;4.55;;;;;;;;;;5033973;28;20024;-70
2023/06/25 07:40:40;;;;;;;5.13;3.97;;;;;;;;;;5025167;28;20048;-69
2023/06/25 07:43:06;;;;;;;7.32;4.95;;;;;;;;;;5014473;28;20022;-72
2023/06/25 07:45:32;;;;;;;5.03;4.00;;;36.20;31.10;;;;;;5014449;28;20030;-72
2023/06/25 07:47:57;;;;;;;5.90;4.47;;;37.30;28.70;;;;;;5014109;28;20164;-72
2023/06/25 07:50:23;;;;;;;8.82;4.57;;;36.70;27.90;;;;;;5014133;28;20122;-72
2023/06/25 07:52:48;;;;;;;5.05;3.92;;;36.70;29.20;;;;;;5013976;28;20087;-72
2023/06/25 07:55:14;;;;;;;4.47;4.07;;;36.80;28.50;;;;;;5014150;28;20040;-72
2023/06/25 07:57:40;;;;;;;7.15;3.85;;;38.00;27.80;;;;;;4996426;28;20021;-71
2023/06/25 08:00:06;;;;;;;4.55;3.35;;;39.40;26.40;;;;;;5013407;28;20032;-70
2023/06/25 08:02:32;;;;;;;5.88;3.75;;;39.90;25.20;;;;;;5013252;28;20431;-71
2023/06/25 08:04:58;;;;;;;6.53;3.70;;;39.50;25.60;;;;;;5012759;28;20113;-70
2023/06/25 08:07:24;;;;;;;5.28;3.55;;;39.60;23.90;;;;;;5012515;28;20028;-71
2023/06/25 08:09:49;;;;;;;6.20;3.80;;;39.90;25.40;;;;;;5036367;22;20053;-70
2023/06/25 08:12:16;;;;;;;4.07;3.70;;;40.70;23.50;;;;;;5013363;28;20072;-70
2023/06/25 08:14:41;;;;;;;4.28;3.30;;;40.60;24.20;;;;;;5013794;28;20045;-70
2023/06/25 08:17:07;;;;;;;5.30;3.45;;;40.90;23.40;;;;;;4995755;28;20068;-70
2023/06/25 08:19:33;;;;;;;4.80;3.50;;;;;;;;;;5013903;28;20026;-70
2023/06/25 08:21:59;;;;;;;5.40;3.45;;;;;;;;;;5013409;28;20065;-70
2023/06/25 08:24:25;;;;;;;3.97;3.67;;;;;;;;;;5013663;28;20030;-70
2023/06/25 08:26:51;;;;;;;3.63;3.20;;;;;;;;;;5013249;28;20053;-70
2023/06/25 08:29:17;;;;;;;6.25;3.15;;;;;;;;;;5013148;28;20030;-71
2023/06/25 08:31:43;;;;;;;4.80;3.58;;;;;;;;;;5013136;28;20033;-70
2023/06/25 08:34:09;;;;;;;4.28;3.22;;;;;;;;;;5013311;28;20036;-70
2023/06/25 08:36:36;;;;;;;3.78;3.33;;;;;;;;;;5013237;28;20038;-70
2023/06/25 08:39:02;;;;;;;3.70;3.30;;;;;;;;;;5013390;28;20029;-70
2023/06/25 08:41:29;;;;;;;4.20;3.75;;;;;;;;;;5013395;28;20028;-70
2023/06/25 08:43:55;;;;;;;14.00;3.45;;;;;;;;;;5015226;28;20105;-71
2023/06/25 08:46:23;;;;;;;6.68;3.78;;;;;;;;;;5015026;28;20026;-70
2023/06/25 08:48:51;;;;;;;3.65;3.25;;;;;;;;;;5014853;28;20030;-69
2023/06/25 08:51:22;;;;;;;5.53;3.85;;;;;;;;;;5012977;28;20026;-70
2023/06/25 08:53:48;;;;;;;4.13;3.45;;;;;;;;;;5013387;28;20026;-70
2023/06/25 08:56:19;;;;;;;4.22;3.88;;;;;;;;;;5012748;28;20018;-70
2023/06/25 08:58:44;;;;;;;;;;;;;;;;;;5013100;28;20022;-70
2023/06/25 09:01:12;;;;;;;5.10;4.07;;;35.20;30.70;;;;;;5012874;28;19901;-70
2023/06/25 09:03:39;;;;;;;5.25;3.80;;;34.90;28.00;;;;;;5012628;28;20480;-70
2023/06/25 09:06:15;;;;;;;4.95;3.85;;;33.20;30.80;;;;;;5012993;28;20034;-70
2023/06/25 09:08:41;;;;;;;4.97;3.45;;;33.60;30.00;;;;;;5012264;28;20388;-70
2023/06/25 09:11:07;;;;;;;6.22;3.45;;;34.50;30.40;;;;;;5012548;28;20044;-70
2023/06/25 09:13:33;;;;;;;5.82;3.60;;;34.40;28.20;;;;;;5012858;28;20480;-70
2023/06/25 09:16:09;;;;;;;5.50;4.13;;;;;;;;;;5012517;28;20484;-70
2023/06/25 09:18:35;;;;;;;4.72;4.30;;;;;;;;;;5012382;28;20053;-70
2023/06/25 09:21:04;;;;;;;4.50;3.60;;;;;;;;;;4994958;28;20018;-70
2023/06/25 09:23:31;;;;;;;6.13;3.45;;;;;;;;;;5012393;28;20022;-69
2023/06/25 09:25:57;;;;;;;3.88;3.58;;;;;;;;;;5012316;28;20623;-69
2023/06/25 09:28:23;;;;;;;4.28;3.45;;;;;;;;;;4994537;28;20435;-70
2023/06/25 09:30:49;;;;;;;3.88;3.30;;;;;;;;;;5012232;28;20034;-70
2023/06/25 09:33:16;;;;;;;6.63;3.50;;;;;;;;;;5012058;28;20056;-71
2023/06/25 09:35:42;;;;;;;6.85;3.53;;;;;;;;;;5012546;28;20038;-70
2023/06/25 09:38:08;;;;;;;4.60;3.50;;;35.30;30.20;;;;;;4993942;28;20438;-70
2023/06/25 09:40:34;;;;;;;3.17;2.88;;;36.10;28.00;;;;;;5012593;28;20030;-70
2023/06/25 09:43:00;;;;;;;3.35;2.95;;;36.50;28.10;;;;;;5012261;28;20033;-70
2023/06/25 09:45:27;;;;;;;4.45;3.28;;;36.90;26.80;;;;;;5011944;28;20056;-70
2023/06/25 09:47:56;;;;;;;3.13;2.92;;;35.90;27.20;;;;;;5011630;28;20087;-70
2023/06/25 09:50:32;;;;;;;4.68;3.50;;;35.70;29.20;;;;;;5011773;28;20080;-70
2023/06/25 09:52:59;;;;;;;3.22;2.92;;;34.60;27.90;;;;;;5011592;28;20037;-70
2023/06/25 09:55:27;;;;;;;4.07;3.03;;;34.30;29.80;;;;;;5011903;28;20057;-70
2023/06/25 09:57:54;;;;;;;4.70;3.28;;;;;;;;;;5011510;28;20551;-70
2023/06/25 10:00:21;;;;;;;3.65;3.15;;;;;;;;;;5011611;28;20030;-70
2023/06/25 10:02:47;;;;;;;4.32;3.22;;;;;;;;;;5011511;28;20022;-70
2023/06/25 10:05:13;;;;;;;2.85;2.65;;;;;;;;;;5011515;28;20018;-69
2023/06/25 10:07:39;;;;;;;3.85;2.75;;;;;;;;;;5010995;28;20173;-70
2023/06/25 10:10:06;;;;;;;3.92;3.20;;;;;;;;;;5011236;28;20033;-70
2023/06/25 10:12:38;;;;;;;5.43;3.22;;;;;;;;;;5011563;28;20034;-70
2023/06/25 10:15:05;;;;;;;4.53;3.65;;;;;;;;;;5011541;28;20084;-70
2023/06/25 10:17:31;;;;;;;4.10;3.42;;;;;;;;;;5011243;28;20033;-70
2023/06/25 10:19:59;;;;;;;3.47;3.10;;;;;;;;;;5011016;28;20080;-70
2023/06/25 10:22:25;;;;;;;3.25;2.92;;;;;;;;;;5011654;28;20030;-70
2023/06/25 10:24:52;;;;;;;3.85;3.35;;;;;;;;;;5010714;28;20033;-70
2023/06/25 10:27:24;;;;;;;6.82;3.45;;;;;;;;;;5011462;28;20025;-70
2023/06/25 10:29:51;;;;;;;4.55;3.67;;;;;;;;;;5011367;28;20049;-70
2023/06/25 10:32:20;;;;;;;5.53;3.67;;;;;;;;;;5011333;28;20034;-68
2023/06/25 10:34:56;;;;;;;4.80;4.10;;;;;;;;;;5010862;28;20038;-68
2023/06/25 10:37:28;;;;;;;4.30;3.90;;;;;;;;;;5010898;28;20018;-69
2023/06/25 10:40:00;;;;;;;4.22;3.40;;;;;;;;;;4993524;28;20030;-69
2023/06/25 10:42:29;;;;;;;4.20;3.80;;;;;;;;;;5011293;28;20022;-69
2023/06/25 10:44:55;;;;;;;7.45;3.65;;;;;;;;;;5010855;28;20033;-69
2023/06/25 10:47:21;;;;;;;5.78;3.78;;;;;;;;;;5010934;28;20029;-70
2023/06/25 10:49:47;;;;;;;6.43;4.45;;;;;;;;;;4993329;28;20450;-70
2023/06/25 10:52:14;;;;;;;4.40;3.40;;;;;;;;;;5011135;28;20030;-70
2023/06/25 10:54:40;;;;;;;8.52;3.97;;;;;;;;;;4993385;28;20026;-70
2023/06/25 10:57:06;;;;;;;5.28;4.03;;;;;;;;;;5010972;28;20033;-70
2023/06/25 10:59:32;;;;;;;5.88;3.80;;;;;;;;;;5010843;28;20022;-70
2023/06/25 11:02:08;;;;;;;4.25;3.85;;;;;;;;;;5011184;28;20022;-69
2023/06/25 11:04:34;;;;;;;6.00;4.00;;;;;;;;;;5011347;28;20483;-68
2023/06/25 11:07:01;;;;;;;4.38;3.88;;;;;;;;;;5011685;28;20026;-69
2023/06/25 11:09:28;;;;;;;6.35;4.50;;;;;;;;;;5010829;28;20034;-69
2023/06/25 11:11:54;;;;;;;6.07;4.30;;;;;;;;;;4993449;28;20037;-69
2023/06/25 11:14:20;;;;;;;6.43;4.13;;;;;;;;;;5011271;28;20061;-69
2023/06/25 11:16:46;;;;;;;5.45;4.00;;;;;;;;;;5011518;28;20029;-69
2023/06/25 11:19:12;;;;;;;4.75;4.07;;;;;;;;;;5010825;28;20033;-70
2023/06/25 11:21:38;;;;;;;5.03;3.65;;;;;;;;;;5010980;28;20036;-69
2023/06/25 11:24:08;;;;;;;6.60;4.50;;;;;;;;;;5010963;28;20239;-69
2023/06/25 11:26:44;;;;;;;4.32;3.55;;;;;;;;;;4993192;28;20054;-69
2023/06/25 11:29:11;;;;;;;4.90;3.88;;;;;;;;;;5010997;28;20102;-70
2023/06/25 11:31:44;;;;;;;4.60;3.95;;;;;;;;;;4992999;28;20105;-69
2023/06/25 11:34:11;;;;;;;6.60;3.70;;;;;;;;;;5010688;28;20022;-70
2023/06/25 11:36:37;;;;;;;7.10;3.85;;;;;;;;;;4996583;28;20046;-70
2023/06/25 11:39:08;;;;;;;4.30;3.90;;;;;;;;;;5013955;28;20037;-69
2023/06/25 11:41:34;;;;;;;7.10;4.05;;;;;;;;;;5014442;28;20038;-70
2023/06/25 11:44:00;;;;;;;4.10;3.70;;;;;;;;;;5014268;28;20030;-70
2023/06/25 11:46:26;;;;;;;8.43;3.97;;;;;;;;;;5014144;28;20033;-70
2023/06/25 11:48:52;;;;;;;7.65;4.15;;;;;;;;;;5013966;28;20488;-70
2023/06/25 11:51:18;;;;;;;8.63;4.25;;;;;;;;;;4996204;28;20034;-71
2023/06/25 11:53:44;;;;;;;4.13;3.70;;;;;;;;;;5013996;28;20122;-70
2023/06/25 11:56:10;;;;;;;9.35;4.18;;;;;;;;;;5014047;28;20045;-70
2023/06/25 11:58:36;;;;;;;4.65;3.75;;;;;;;;;;5013745;28;20022;-70
2023/06/25 12:01:02;;;;;;;5.30;4.07;;;;;;;;;;5013669;28;20447;-70
2023/06/25 12:03:30;;;;;;;5.22;4.00;;;;;;;;;;5013878;28;20106;-70
2023/06/25 12:05:56;;;;;;;4.47;3.72;;;;;;;;;;5013510;28;20022;-69
2023/06/25 12:08:22;;;;;;;5.13;4.10;;;;;;;;;;5013473;28;20028;-69
2023/06/25 12:10:48;;;;;;;4.57;4.00;;;;;;;;;;5013366;28;20463;-70
2023/06/25 12:13:14;;;;;;;4.30;3.90;;;;;;;;;;5013606;28;20493;-70
2023/06/25 12:15:40;;;;;;;4.75;3.83;;;;;;;;;;5013567;28;20033;-70
2023/06/25 12:18:06;;;;;;;4.10;3.53;;;;;;;;;;5013272;28;20022;-70
2023/06/25 12:20:32;;;;;;;5.57;4.15;;;;;;;;;;4995651;28;20037;-70
2023/06/25 12:22:58;;;;;;;3.95;3.65;;;;;;;;;;5013280;28;20052;-69
2023/06/25 12:25:24;;;;;;;6.43;4.10;;;;;;;;;;4995979;28;20022;-69
2023/06/25 12:27:53;;;;;;;5.28;3.83;;;;;;;;;;5013179;28;20026;-69
2023/06/25 12:30:19;;;;;;;5.50;3.60;;;;;;;;;;5013452;28;20030;-69
2023/06/25 12:32:46;;;;;;;5.55;4.32;;;;;;;;;;5013173;28;20519;-70
2023/06/25 12:35:12;;;;;;;5.28;3.80;;;;;;;;;;5013186;28;20034;-69
2023/06/25 12:37:38;;;;;;;6.35;4.63;;;;;;;;;;5003033;28;20034;-70
2023/06/25 12:40:05;;;;;;;4.35;3.90;;;;;;;;;;4999999;28;20030;-70
2023/06/25 12:42:31;;;;;;;4.78;3.83;;;;;;;;;;5012466;28;20021;-70
2023/06/25 12:44:57;;;;;;;4.07;3.75;;;;;;;;;;5012955;28;20365;-69
2023/06/25 12:47:23;;;;;;;3.72;3.42;;;;;;;;;;5011835;28;20053;-70
2023/06/25 12:49:49;;;;;;;5.35;3.80;;;;;;;;;;5012756;28;20030;-69
2023/06/25 12:52:15;;;;;;;3.90;3.53;;;;;;;;;;5012994;28;20030;-69
2023/06/25 12:54:43;;;;;;;4.03;3.70;;;;;;;;;;5012925;28;20029;-69
2023/06/25 12:57:09;;;;;;;4.22;3.83;;;;;;;;;;5012404;28;20028;-69
2023/06/25 12:59:35;;;;;;;6.13;4.97;;;;;;;;;;5012724;28;20026;-69
2023/06/25 13:02:01;;;;;;;6.07;4.03;;;;;;;;;;5012596;28;20036;-70
2023/06/25 13:04:27;;;;;;;6.90;4.65;;;;;;;;;;5012589;28;20392;-70
2023/06/25 13:06:53;;;;;;;4.47;4.05;;;;;;;;;;5012703;28;20022;-69
2023/06/25 13:09:19;;;;;;;3.92;3.63;;;;;;;;;;5012264;28;20514;-69
2023/06/25 13:11:45;;;;;;;4.80;3.95;;;;;;;;;;5012406;28;20034;-70
2023/06/25 13:14:11;;;;;;;3.75;3.33;;;;;;;;;;5012797;28;20468;-70
2023/06/25 13:16:37;;;;;;;4.05;3.65;;;;;;;;;;5012308;28;20060;-70
2023/06/25 13:19:03;;;;;;;7.60;3.90;;;;;;;;;;5012225;28;20033;-70
2023/06/25 13:21:29;;;;;;;4.47;3.60;;;;;;;;;;5012539;28;20030;-70
2023/06/25 13:23:55;;;;;;;6.15;3.53;;;;;;;;;;5012458;28;20029;-70
2023/06/25 13:26:22;;;;;;;4.25;3.85;;;;;;;;;;5012702;28;20079;-70
2023/06/25 13:28:48;;;;;;;7.72;4.43;;;;;;;;;;5012079;28;20096;-70
2023/06/25 13:31:15;;;;;;;4.25;3.85;;;;;;;;;;5012451;28;20029;-70
2023/06/25 13:33:43;;;;;;;8.63;4.18;;;;;;;;;;5012204;28;20029;-69
2023/06/25 13:36:09;;;;;;;4.90;4.05;;;;;;;;;;5012120;28;20034;-69
2023/06/25 13:38:35;;;;;;;5.70;4.00;;;;;;;;;;5011931;28;20052;-70
2023/06/25 13:41:01;;;;;;;4.68;4.20;;;;;;;;;;4994522;28;20453;-70
2023/06/25 13:43:27;;;;;;;4.18;3.78;;;;;;;;;;5011958;28;20110;-70
2023/06/25 13:45:53;;;;;;;4.50;4.10;;;;;;;;;;5012190;28;20025;-70
2023/06/25 13:48:19;;;;;;;5.78;3.85;;;;;;;;;;4994263;28;20088;-70
2023/06/25 13:50:45;;;;;;;4.32;3.22;;;;;;;;;;5011777;28;20400;-70
2023/06/25 13:53:12;;;;;;;4.90;4.03;;;;;;;;;;5012012;28;20068;-70
2023/06/25 13:55:38;;;;;;;4.53;3.70;;;;;;;;;;4994505;28;20022;-70
2023/06/25 13:58:04;;;;;;;6.07;4.18;;;;;;;;;;5011497;28;20072;-68
2023/06/25 14:00:30;;;;;;;4.55;4.10;;;;;;;;;;5012170;28;20388;-69